createdAt,value
2017-07-18T05:31:17.450Z,105
2017-07-18T05:31:42.944Z,105
2017-07-18T05:32:08.413Z,110
2017-07-18T05:32:33.895Z,110
2017-07-18T05:32:59.385Z,110
2017-07-18T05:33:24.849Z,110
2017-07-18T05:33:50.352Z,110
2017-07-18T05:34:15.845Z,110
2017-07-18T05:34:41.326Z,105
2017-07-18T05:35:06.810Z,110
2017-07-18T05:35:32.285Z,110
2017-07-18T05:35:57.763Z,110
2017-07-18T05:36:23.238Z,105
2017-07-18T05:36:48.714Z,105
2017-07-18T05:37:14.188Z,110
2017-07-18T05:37:39.640Z,110
2017-07-18T05:38:05.102Z,110
2017-07-18T05:38:30.609Z,110
2017-07-18T05:38:56.050Z,110
2017-07-18T05:39:21.519Z,110
2017-07-18T05:39:46.995Z,110
2017-07-18T05:40:12.489Z,110
2017-07-18T05:40:37.952Z,110
2017-07-18T05:41:03.456Z,110
2017-07-18T05:41:28.916Z,110
2017-07-18T05:41:54.435Z,110
2017-07-18T05:42:19.903Z,110
2017-07-18T05:42:45.356Z,115
2017-07-18T05:43:10.826Z,115
2017-07-18T05:43:36.281Z,115
2017-07-18T05:44:01.774Z,115
2017-07-18T05:44:27.242Z,115
2017-07-18T05:44:52.722Z,115
2017-07-18T05:45:18.178Z,120
2017-07-18T05:45:43.655Z,120
2017-07-18T05:46:09.124Z,120
2017-07-18T05:46:34.598Z,120
2017-07-18T05:47:00.109Z,125
2017-07-18T05:47:25.567Z,125
2017-07-18T05:47:51.062Z,130
2017-07-18T05:48:16.534Z,130
2017-07-18T05:48:42.009Z,135
2017-07-18T05:49:07.483Z,135
2017-07-18T05:49:32.924Z,135
2017-07-18T05:49:58.395Z,135
2017-07-18T05:50:23.874Z,135
2017-07-18T05:50:49.341Z,140
2017-07-18T05:51:14.785Z,145
2017-07-18T05:51:40.250Z,145
2017-07-18T05:52:05.748Z,145
2017-07-18T05:52:31.233Z,145
2017-07-18T05:52:56.703Z,145
2017-07-18T05:53:22.180Z,145
2017-07-18T05:53:47.666Z,150
2017-07-18T05:54:13.149Z,160
2017-07-18T05:54:38.617Z,160
2017-07-18T05:55:04.123Z,165
2017-07-18T05:55:29.598Z,165
2017-07-18T05:55:55.065Z,165
2017-07-18T05:56:20.548Z,170
2017-07-18T05:56:46.029Z,170
2017-07-18T05:57:11.482Z,170
2017-07-18T05:57:36.961Z,175
2017-07-18T05:58:02.441Z,175
2017-07-18T05:58:27.905Z,180
2017-07-18T05:58:53.379Z,185
2017-07-18T05:59:18.886Z,185
2017-07-18T05:59:44.364Z,185
2017-07-18T06:00:09.839Z,185
2017-07-18T06:00:35.312Z,190
2017-07-18T06:01:00.819Z,170
2017-07-18T06:01:26.303Z,170
2017-07-18T06:01:51.765Z,190
2017-07-18T06:02:17.254Z,180
2017-07-18T06:02:42.717Z,170
2017-07-18T06:03:08.163Z,165
2017-07-18T06:03:33.648Z,165
2017-07-18T06:03:59.112Z,175
2017-07-18T06:04:24.592Z,185
2017-07-18T06:04:50.074Z,205
2017-07-18T06:05:15.600Z,200
2017-07-18T06:05:41.050Z,195
2017-07-18T06:06:06.514Z,185
2017-07-18T06:06:31.992Z,190
2017-07-18T06:06:57.461Z,175
2017-07-18T06:07:22.886Z,175
2017-07-18T06:07:48.383Z,175
2017-07-18T06:08:13.889Z,180
2017-07-18T06:08:39.369Z,180
2017-07-18T06:09:04.872Z,180
2017-07-18T06:09:30.340Z,175
2017-07-18T06:09:55.815Z,175
2017-07-18T06:10:21.275Z,180
2017-07-18T06:10:46.782Z,180
2017-07-18T06:11:12.303Z,185
2017-07-18T06:11:37.759Z,180
2017-07-18T06:12:03.282Z,175
2017-07-18T06:12:28.747Z,175
2017-07-18T06:12:54.221Z,175
2017-07-18T06:13:19.687Z,170
2017-07-18T06:13:45.161Z,170
2017-07-18T06:14:10.659Z,170
2017-07-18T06:14:36.139Z,165
2017-07-18T06:15:01.592Z,165
2017-07-18T06:15:27.077Z,160
2017-07-18T06:15:52.574Z,160
2017-07-18T06:16:18.050Z,160
2017-07-18T06:16:43.538Z,160
2017-07-18T06:17:08.991Z,155
2017-07-18T06:17:34.489Z,155
2017-07-18T06:17:59.970Z,155
2017-07-18T06:18:25.466Z,155
2017-07-18T06:18:50.927Z,155
2017-07-18T06:19:16.412Z,150
2017-07-18T06:19:41.906Z,145
2017-07-18T06:20:07.382Z,145
2017-07-18T06:20:32.857Z,145
2017-07-18T06:20:58.370Z,140
2017-07-18T06:21:23.840Z,145
2017-07-18T06:21:49.299Z,140
2017-07-18T06:22:14.814Z,140
2017-07-18T06:22:40.252Z,140
2017-07-18T06:23:05.754Z,145
2017-07-18T06:23:31.225Z,145
2017-07-18T06:23:56.706Z,145
2017-07-18T06:24:22.176Z,145
2017-07-18T06:24:47.637Z,145
2017-07-18T06:25:13.109Z,145
2017-07-18T06:25:38.576Z,155
2017-07-18T06:26:04.050Z,150
2017-07-18T06:26:29.525Z,150
2017-07-18T06:26:54.989Z,155
2017-07-18T06:27:20.486Z,160
2017-07-18T06:27:45.974Z,160
2017-07-18T06:28:11.455Z,160
2017-07-18T06:28:36.928Z,170
2017-07-18T06:29:02.415Z,160
2017-07-18T06:29:27.911Z,170
2017-07-18T06:29:53.390Z,175
2017-07-18T06:30:18.857Z,175
2017-07-18T06:30:44.322Z,170
2017-07-18T06:31:09.815Z,165
2017-07-18T06:31:35.284Z,170
2017-07-18T06:32:00.748Z,170
2017-07-18T06:32:26.237Z,170
2017-07-18T06:32:51.729Z,170
2017-07-18T06:33:17.234Z,170
2017-07-18T06:33:42.720Z,170
2017-07-18T06:34:08.216Z,175
2017-07-18T06:34:33.713Z,180
2017-07-18T06:34:59.194Z,185
2017-07-18T06:35:24.694Z,185
2017-07-18T06:35:50.181Z,180
2017-07-18T06:36:15.647Z,175
2017-07-18T06:36:41.108Z,175
2017-07-18T06:37:06.569Z,175
2017-07-18T06:37:32.034Z,175
2017-07-18T06:37:57.513Z,180
2017-07-18T06:38:23.014Z,180
2017-07-18T06:38:48.485Z,185
2017-07-18T06:39:13.937Z,180
2017-07-18T06:39:39.400Z,185
2017-07-18T06:40:04.852Z,180
2017-07-18T06:40:30.365Z,180
2017-07-18T06:40:55.823Z,180
2017-07-18T06:41:21.315Z,175
2017-07-18T06:41:46.767Z,170
2017-07-18T06:42:12.253Z,175
2017-07-18T06:42:37.776Z,170
2017-07-18T06:43:03.260Z,170
2017-07-18T06:43:28.714Z,165
2017-07-18T06:43:54.182Z,165
2017-07-18T06:44:19.656Z,160
2017-07-18T06:44:45.147Z,155
2017-07-18T06:45:10.611Z,155
2017-07-18T06:45:36.115Z,170
2017-07-18T06:46:01.590Z,165
2017-07-18T06:46:27.073Z,165
2017-07-18T06:46:52.547Z,160
2017-07-18T06:47:18.022Z,150
2017-07-18T06:47:43.496Z,160
2017-07-18T06:48:08.968Z,160
2017-07-18T06:48:34.457Z,160
2017-07-18T06:48:59.983Z,165
2017-07-18T06:49:25.445Z,170
2017-07-18T06:49:50.923Z,175
2017-07-18T06:50:16.428Z,175
2017-07-18T06:50:41.912Z,175
2017-07-18T06:51:07.387Z,170
2017-07-18T06:51:32.875Z,185
2017-07-18T06:51:58.352Z,175
2017-07-18T06:52:23.802Z,165
2017-07-18T06:52:49.246Z,165
2017-07-18T06:53:14.720Z,175
2017-07-18T06:53:40.187Z,160
2017-07-18T06:54:05.641Z,160
2017-07-18T06:54:31.143Z,140
2017-07-18T06:54:56.605Z,150
2017-07-18T06:55:22.083Z,160
2017-07-18T06:55:47.543Z,150
2017-07-18T06:56:13.048Z,145
2017-07-18T06:56:38.529Z,150
2017-07-18T06:57:03.988Z,165
2017-07-18T06:57:29.457Z,170
2017-07-18T06:57:54.922Z,135
2017-07-18T06:58:20.442Z,125
2017-07-18T06:58:45.908Z,120
2017-07-18T06:59:11.380Z,115
2017-07-18T06:59:36.850Z,100
2017-07-18T07:00:02.334Z,105
2017-07-18T07:00:27.798Z,100
2017-07-18T07:00:53.268Z,100
2017-07-18T07:01:18.739Z,105
2017-07-18T07:01:44.236Z,105
2017-07-18T07:02:09.685Z,105
2017-07-18T07:02:35.140Z,120
2017-07-18T07:03:00.594Z,145
2017-07-18T07:03:26.075Z,140
2017-07-18T07:03:51.559Z,145
2017-07-18T07:04:17.025Z,130
2017-07-18T07:04:42.500Z,100
2017-07-18T07:05:07.983Z,95
2017-07-18T07:05:33.439Z,95
2017-07-18T07:05:58.884Z,95
2017-07-18T07:06:24.373Z,100
2017-07-18T07:06:49.852Z,120
2017-07-18T07:07:15.308Z,105
2017-07-18T07:07:40.793Z,140
2017-07-18T07:08:06.309Z,130
2017-07-18T07:08:31.784Z,155
2017-07-18T07:08:57.266Z,165
2017-07-18T07:09:22.739Z,150
2017-07-18T07:09:48.278Z,160
2017-07-18T07:10:13.758Z,160
2017-07-18T07:10:39.227Z,160
2017-07-18T07:11:04.701Z,160
2017-07-18T07:11:30.176Z,160
2017-07-18T07:11:55.632Z,160
2017-07-18T07:12:21.098Z,165
2017-07-18T07:12:46.565Z,140
2017-07-18T07:13:12.022Z,125
2017-07-18T07:13:37.519Z,130
2017-07-18T07:14:03.023Z,145
2017-07-18T07:14:28.462Z,150
2017-07-18T07:14:53.934Z,160
2017-07-18T07:15:19.416Z,160
2017-07-18T07:15:44.923Z,160
2017-07-18T07:16:10.390Z,160
2017-07-18T07:16:35.870Z,160
2017-07-18T07:17:01.347Z,160
2017-07-18T07:17:26.812Z,165
2017-07-18T07:17:52.281Z,160
2017-07-18T07:18:17.777Z,160
2017-07-18T07:18:43.251Z,160
2017-07-18T07:19:08.710Z,160
2017-07-18T07:19:34.196Z,155
2017-07-18T07:19:59.668Z,145
2017-07-18T07:20:25.128Z,120
2017-07-18T07:20:50.619Z,145
2017-07-18T07:21:16.120Z,135
2017-07-18T07:21:41.590Z,125
2017-07-18T07:22:07.070Z,115
2017-07-18T07:22:32.562Z,115
2017-07-18T07:22:58.042Z,110
2017-07-18T07:23:23.522Z,110
2017-07-18T07:23:49.033Z,105
2017-07-18T07:24:14.506Z,95
2017-07-18T07:24:39.988Z,95
2017-07-18T07:25:05.446Z,95
2017-07-18T07:25:30.936Z,95
2017-07-18T07:25:56.431Z,100
2017-07-18T07:26:21.901Z,100
2017-07-18T07:26:47.381Z,100
2017-07-18T07:27:12.820Z,115
2017-07-18T07:27:38.280Z,130
2017-07-18T07:28:03.747Z,125
2017-07-18T07:28:29.216Z,125
2017-07-18T07:28:54.683Z,135
2017-07-18T07:29:20.180Z,150
2017-07-18T07:29:45.666Z,135
2017-07-18T07:30:11.119Z,135
2017-07-18T07:30:36.601Z,135
2017-07-18T07:31:02.068Z,150
2017-07-18T07:31:27.528Z,150
2017-07-18T07:31:52.998Z,150
2017-07-18T07:32:18.494Z,155
2017-07-18T07:32:44.013Z,180
2017-07-18T07:33:09.488Z,180
2017-07-18T07:33:34.934Z,190
2017-07-18T07:34:00.375Z,195
2017-07-18T07:34:25.815Z,210
2017-07-18T07:34:51.274Z,200
2017-07-18T07:35:16.736Z,205
2017-07-18T07:35:42.202Z,200
2017-07-18T07:36:07.668Z,210
2017-07-18T07:36:33.126Z,210
2017-07-18T07:36:58.593Z,210
2017-07-18T07:37:24.063Z,210
2017-07-18T07:37:49.545Z,200
2017-07-18T07:38:15.006Z,215
2017-07-18T07:38:40.468Z,200
2017-07-18T07:39:06.003Z,195
2017-07-18T07:39:31.503Z,195
2017-07-18T07:39:56.992Z,185
2017-07-18T07:40:22.482Z,180
2017-07-18T07:40:47.952Z,170
2017-07-18T07:41:13.417Z,150
2017-07-18T07:41:38.880Z,155
2017-07-18T07:42:04.380Z,145
2017-07-18T07:42:29.861Z,145
2017-07-18T07:42:55.321Z,135
2017-07-18T07:43:20.772Z,135
2017-07-18T07:43:46.228Z,190
2017-07-18T07:44:11.732Z,140
2017-07-18T07:44:37.169Z,140
2017-07-18T07:45:02.647Z,175
2017-07-18T07:45:28.139Z,155
2017-07-18T07:45:53.594Z,140
2017-07-18T07:46:19.093Z,125
2017-07-18T07:46:44.540Z,155
2017-07-18T07:47:10.042Z,125
2017-07-18T07:47:35.528Z,120
2017-07-18T07:48:00.993Z,160
2017-07-18T07:48:26.481Z,140
2017-07-18T07:48:51.954Z,135
2017-07-18T07:49:17.436Z,160
2017-07-18T07:49:42.945Z,130
2017-07-18T07:50:08.416Z,125
2017-07-18T07:50:33.888Z,140
2017-07-18T07:50:59.347Z,150
2017-07-18T07:51:24.841Z,140
2017-07-18T07:51:50.316Z,150
2017-07-18T07:52:15.813Z,150
2017-07-18T07:52:41.298Z,160
2017-07-18T07:53:06.791Z,130
2017-07-18T07:53:32.264Z,115
2017-07-18T07:53:57.805Z,120
2017-07-18T07:54:23.254Z,150
2017-07-18T07:54:48.763Z,155
2017-07-18T07:55:14.261Z,130
2017-07-18T07:55:39.738Z,135
2017-07-18T07:56:05.236Z,150
2017-07-18T07:56:30.726Z,160
2017-07-18T07:56:56.194Z,150
2017-07-18T07:57:21.674Z,125
2017-07-18T07:57:47.147Z,140
2017-07-18T07:58:12.609Z,150
2017-07-18T07:58:38.069Z,160
2017-07-18T07:59:03.535Z,155
2017-07-18T07:59:29.013Z,155
2017-07-18T07:59:54.502Z,155
2017-07-18T08:00:20.005Z,155
2017-07-18T08:00:45.462Z,160
2017-07-18T08:01:10.942Z,160
2017-07-18T08:01:36.420Z,160
2017-07-18T08:02:01.896Z,160
2017-07-18T08:02:27.365Z,160
2017-07-18T08:02:52.844Z,165
2017-07-18T08:03:18.303Z,165
2017-07-18T08:03:43.785Z,165
2017-07-18T08:04:09.277Z,165
2017-07-18T08:04:34.747Z,165
2017-07-18T08:05:00.222Z,170
2017-07-18T08:05:25.693Z,170
2017-07-18T08:05:51.165Z,170
2017-07-18T08:06:16.620Z,165
2017-07-18T08:06:42.108Z,170
2017-07-18T08:07:07.581Z,170
2017-07-18T08:07:33.059Z,170
2017-07-18T08:07:58.520Z,170
2017-07-18T08:08:24.018Z,170
2017-07-18T08:08:49.490Z,180
2017-07-18T08:09:14.996Z,175
2017-07-18T08:09:40.467Z,175
2017-07-18T08:10:05.943Z,175
2017-07-18T08:10:31.426Z,180
2017-07-18T08:10:56.889Z,180
2017-07-18T08:12:20.893Z,190
2017-07-18T08:12:46.368Z,195
2017-07-18T08:13:11.849Z,200
2017-07-18T08:13:37.316Z,200
2017-07-18T08:14:02.827Z,205
2017-07-18T08:14:28.304Z,210
2017-07-18T08:14:53.801Z,215
2017-07-18T08:15:19.271Z,210
2017-07-18T08:15:44.730Z,220
2017-07-18T08:16:10.206Z,225
2017-07-18T08:16:35.733Z,220
2017-07-18T08:17:01.183Z,225
2017-07-18T08:17:26.681Z,215
2017-07-18T08:17:52.173Z,230
2017-07-18T08:18:17.630Z,235
2017-07-18T08:18:43.095Z,230
2017-07-18T08:19:08.589Z,220
2017-07-18T08:19:34.094Z,220
2017-07-18T08:19:59.577Z,225
2017-07-18T08:20:25.042Z,210
2017-07-18T08:20:50.555Z,210
2017-07-18T08:21:16.034Z,210
2017-07-18T08:21:41.510Z,235
2017-07-18T08:22:06.973Z,215
2017-07-18T08:22:32.417Z,215
2017-07-18T08:22:57.882Z,215
2017-07-18T08:23:23.367Z,235
2017-07-18T08:23:48.862Z,215
2017-07-18T08:24:14.296Z,220
2017-07-18T08:24:39.796Z,215
2017-07-18T08:25:05.283Z,215
2017-07-18T08:25:30.743Z,220
2017-07-18T08:25:56.225Z,220
2017-07-18T08:26:21.708Z,220
2017-07-18T08:26:47.179Z,225
2017-07-18T08:27:12.667Z,220
2017-07-18T08:27:38.118Z,225
2017-07-18T08:28:03.621Z,230
2017-07-18T08:28:29.078Z,230
2017-07-18T08:28:54.581Z,235
2017-07-18T08:29:20.032Z,235
2017-07-18T08:29:45.531Z,240
2017-07-18T08:30:11.008Z,250
2017-07-18T08:30:36.478Z,250
2017-07-18T08:31:01.976Z,255
2017-07-18T08:31:27.474Z,275
2017-07-18T08:31:52.962Z,255
2017-07-18T08:32:18.422Z,255
2017-07-18T08:32:43.913Z,270
2017-07-18T08:33:09.385Z,265
2017-07-18T08:33:34.891Z,265
2017-07-18T08:34:00.353Z,265
2017-07-18T08:34:25.823Z,270
2017-07-18T08:34:51.273Z,270
2017-07-18T08:35:16.738Z,275
2017-07-18T08:35:42.212Z,285
2017-07-18T08:36:07.720Z,295
2017-07-18T08:36:33.169Z,280
2017-07-18T08:36:58.669Z,285
2017-07-18T08:37:24.154Z,290
2017-07-18T08:37:49.622Z,285
2017-07-18T08:38:15.121Z,285
2017-07-18T08:38:40.636Z,300
2017-07-18T08:39:06.082Z,285
2017-07-18T08:39:31.554Z,280
2017-07-18T08:39:57.027Z,280
2017-07-18T08:40:22.537Z,290
2017-07-18T08:40:48.056Z,280
2017-07-18T08:41:13.518Z,280
2017-07-18T08:41:39.025Z,275
2017-07-18T08:42:04.480Z,285
2017-07-18T08:42:29.942Z,275
2017-07-18T08:42:55.434Z,265
2017-07-18T08:43:20.904Z,280
2017-07-18T08:43:46.382Z,255
2017-07-18T08:44:11.865Z,260
2017-07-18T08:44:37.353Z,260
2017-07-18T08:45:02.829Z,255
2017-07-18T08:45:28.318Z,255
2017-07-18T08:45:53.811Z,250
2017-07-18T08:46:19.279Z,245
2017-07-18T08:46:44.760Z,260
2017-07-18T08:47:10.223Z,255
2017-07-18T08:47:35.694Z,230
2017-07-18T08:48:01.150Z,235
2017-07-18T08:48:26.628Z,230
2017-07-18T08:48:52.083Z,230
2017-07-18T08:49:17.586Z,245
2017-07-18T08:49:43.044Z,245
2017-07-18T08:50:08.543Z,240
2017-07-18T08:50:33.988Z,240
2017-07-18T08:50:59.459Z,235
2017-07-18T08:51:24.927Z,245
2017-07-18T08:51:50.414Z,240
2017-07-18T08:52:15.910Z,250
2017-07-18T08:52:41.378Z,255
2017-07-18T08:53:06.862Z,250
2017-07-18T08:53:32.348Z,245
2017-07-18T08:53:57.813Z,245
2017-07-18T08:54:23.336Z,240
2017-07-18T08:54:48.805Z,245
2017-07-18T08:55:14.287Z,235
2017-07-18T08:55:39.742Z,240
2017-07-18T08:56:05.219Z,230
2017-07-18T08:56:30.710Z,230
2017-07-18T08:56:56.145Z,230
2017-07-18T08:57:21.644Z,225
2017-07-18T08:57:47.122Z,220
2017-07-18T08:58:12.582Z,215
2017-07-18T08:58:38.071Z,205
2017-07-18T08:59:03.522Z,200
2017-07-18T08:59:28.968Z,170
2017-07-18T08:59:54.447Z,185
2017-07-18T09:00:19.931Z,180
2017-07-18T09:00:45.416Z,175
2017-07-18T09:01:10.911Z,170
2017-07-18T09:01:36.400Z,165
2017-07-18T09:02:01.836Z,155
2017-07-18T09:02:27.309Z,155
2017-07-18T09:02:52.768Z,155
2017-07-18T09:04:06.590Z,150
2017-07-18T09:04:32.063Z,150
2017-07-18T09:04:57.529Z,145
2017-07-18T09:05:23.009Z,140
2017-07-18T09:05:48.488Z,145
2017-07-18T09:06:13.974Z,145
2017-07-18T09:06:39.456Z,140
2017-07-18T09:07:04.925Z,140
2017-07-18T09:07:30.418Z,135
2017-07-18T09:07:55.893Z,135
2017-07-18T09:08:21.342Z,135
2017-07-18T09:08:46.816Z,135
2017-07-18T09:09:12.272Z,135
2017-07-18T09:09:37.782Z,135
2017-07-18T09:10:03.280Z,135
2017-07-18T09:10:28.760Z,135
2017-07-18T09:10:54.217Z,135
2017-07-18T09:11:19.708Z,135
2017-07-18T09:11:45.192Z,135
2017-07-18T09:12:10.672Z,135
2017-07-18T09:12:36.138Z,135
2017-07-18T09:13:01.609Z,135
2017-07-18T09:13:27.087Z,135
2017-07-18T09:13:52.564Z,135
2017-07-18T09:14:18.014Z,140
2017-07-18T09:14:43.460Z,140
2017-07-18T09:15:08.928Z,140
2017-07-18T09:15:34.392Z,140
2017-07-18T09:15:59.885Z,140
2017-07-18T09:16:25.363Z,140
2017-07-18T09:16:50.812Z,140
2017-07-18T09:17:16.300Z,140
2017-07-18T09:17:41.787Z,140
2017-07-18T09:18:07.269Z,135
2017-07-18T09:18:32.751Z,135
2017-07-18T09:18:58.220Z,135
2017-07-18T09:19:23.702Z,135
2017-07-18T09:19:49.177Z,135
2017-07-18T09:20:14.631Z,135
2017-07-18T09:20:40.114Z,130
2017-07-18T09:21:05.561Z,130
2017-07-18T09:21:31.031Z,130
2017-07-18T09:21:56.512Z,125
2017-07-18T09:22:21.962Z,125
2017-07-18T09:22:47.443Z,125
2017-07-18T09:23:12.907Z,125
2017-07-18T09:23:38.385Z,120
2017-07-18T09:24:03.889Z,120
2017-07-18T09:24:29.336Z,120
2017-07-18T09:24:54.798Z,120
2017-07-18T09:25:20.321Z,120
2017-07-18T09:25:45.802Z,120
2017-07-18T09:26:11.291Z,125
2017-07-18T09:26:36.781Z,120
2017-07-18T09:27:02.255Z,120
2017-07-18T09:27:27.727Z,120
2017-07-18T09:27:53.211Z,120
2017-07-18T09:28:18.666Z,120
2017-07-18T09:28:44.181Z,120
2017-07-18T09:29:09.666Z,120
2017-07-18T09:29:35.147Z,120
2017-07-18T09:30:00.618Z,120
2017-07-18T09:30:26.084Z,120
2017-07-18T09:30:51.551Z,120
2017-07-18T09:31:17.035Z,120
2017-07-18T09:31:42.507Z,120
2017-07-18T09:32:07.974Z,120
2017-07-18T09:32:33.433Z,120
2017-07-18T09:32:58.910Z,120
2017-07-18T09:33:24.393Z,115
2017-07-18T09:33:49.858Z,115
2017-07-18T09:34:15.315Z,115
2017-07-18T09:34:40.808Z,115
2017-07-18T09:35:06.289Z,115
2017-07-18T09:35:31.768Z,115
2017-07-18T09:35:57.271Z,115
2017-07-18T09:36:22.732Z,115
2017-07-18T09:36:48.193Z,115
2017-07-18T09:37:13.668Z,115
2017-07-18T09:37:39.167Z,115
2017-07-18T09:38:04.624Z,115
2017-07-18T09:38:30.120Z,115
2017-07-18T09:38:55.594Z,115
2017-07-18T09:39:21.103Z,115
2017-07-18T09:39:46.594Z,120
2017-07-18T09:40:12.080Z,120
2017-07-18T09:40:37.556Z,120
2017-07-18T09:41:03.058Z,125
2017-07-18T09:41:28.538Z,125
2017-07-18T09:41:53.991Z,130
2017-07-18T09:42:19.509Z,130
2017-07-18T09:42:44.979Z,130
2017-07-18T09:43:10.433Z,130
2017-07-18T09:43:35.940Z,130
2017-07-18T09:44:01.419Z,135
2017-07-18T09:44:26.871Z,135
2017-07-18T09:44:52.326Z,135
2017-07-18T09:45:17.862Z,135
2017-07-18T09:45:43.325Z,140
2017-07-18T09:46:08.818Z,140
2017-07-18T09:46:34.276Z,140
2017-07-18T09:46:59.792Z,140
2017-07-18T09:47:25.241Z,140
2017-07-18T09:47:50.705Z,145
2017-07-18T09:48:16.194Z,150
2017-07-18T09:48:41.685Z,150
2017-07-18T09:49:07.201Z,155
2017-07-18T09:49:32.645Z,155
2017-07-18T09:49:58.149Z,155
2017-07-18T09:50:23.624Z,160
2017-07-18T09:50:49.089Z,155
2017-07-18T09:51:14.571Z,155
2017-07-18T09:51:40.067Z,160
2017-07-18T09:52:05.521Z,160
2017-07-18T09:52:31.005Z,165
2017-07-18T09:52:56.469Z,170
2017-07-18T09:53:21.979Z,170
2017-07-18T09:53:47.474Z,170
2017-07-18T09:54:12.958Z,170
2017-07-18T09:54:38.416Z,175
2017-07-18T09:55:03.879Z,180
2017-07-18T09:55:29.355Z,185
2017-07-18T09:55:54.837Z,190
2017-07-18T09:56:20.319Z,195
2017-07-18T09:56:45.802Z,195
2017-07-18T09:57:11.287Z,200
2017-07-18T09:57:36.775Z,205
2017-07-18T09:58:02.242Z,210
2017-07-18T09:58:27.726Z,215
2017-07-18T09:58:53.222Z,215
2017-07-18T09:59:18.668Z,220
2017-07-18T09:59:44.113Z,215
2017-07-18T10:00:09.628Z,215
2017-07-18T10:01:33.614Z,215
2017-07-18T10:01:59.095Z,215
2017-07-18T10:02:24.580Z,220
2017-07-18T10:02:50.061Z,220
2017-07-18T10:03:15.538Z,220
2017-07-18T10:03:41.013Z,215
2017-07-18T10:04:06.500Z,215
2017-07-18T10:04:31.998Z,210
2017-07-18T10:04:57.494Z,210
2017-07-18T10:05:22.961Z,205
2017-07-18T10:05:48.450Z,200
2017-07-18T10:06:13.918Z,200
2017-07-18T10:06:39.389Z,195
2017-07-18T10:07:04.844Z,195
2017-07-18T10:07:30.311Z,190
2017-07-18T10:07:55.798Z,190
2017-07-18T10:08:21.258Z,185
2017-07-18T10:08:46.784Z,185
2017-07-18T10:09:12.237Z,180
2017-07-18T10:09:37.725Z,180
2017-07-18T10:10:03.221Z,175
2017-07-18T10:10:28.690Z,175
2017-07-18T10:10:54.180Z,170
2017-07-18T10:11:19.668Z,170
2017-07-18T10:11:45.152Z,165
2017-07-18T10:12:10.652Z,160
2017-07-18T10:12:36.127Z,160
2017-07-18T10:13:01.625Z,155
2017-07-18T10:13:27.075Z,155
2017-07-18T10:13:52.542Z,155
2017-07-18T10:14:18.038Z,150
2017-07-18T10:14:43.528Z,145
2017-07-18T10:15:08.973Z,135
2017-07-18T10:15:34.443Z,135
2017-07-18T10:15:59.918Z,135
2017-07-18T10:16:25.362Z,130
2017-07-18T10:16:50.813Z,130
2017-07-18T10:17:16.294Z,125
2017-07-18T10:17:41.774Z,125
2017-07-18T10:18:07.236Z,125
2017-07-18T10:18:32.713Z,125
2017-07-18T10:18:58.192Z,125
2017-07-18T10:19:23.688Z,120
2017-07-18T10:19:49.158Z,120
2017-07-18T10:20:14.618Z,120
2017-07-18T10:20:40.129Z,120
2017-07-18T10:21:05.592Z,115
2017-07-18T10:21:31.061Z,115
2017-07-18T10:21:56.559Z,110
2017-07-18T10:22:22.065Z,110
2017-07-18T10:22:47.526Z,115
2017-07-18T10:23:13.032Z,115
2017-07-18T10:23:38.510Z,115
2017-07-18T10:24:04.006Z,110
2017-07-18T10:24:29.486Z,110
2017-07-18T10:24:54.964Z,110
2017-07-18T10:25:20.473Z,110
2017-07-18T10:25:45.952Z,110
2017-07-18T10:26:11.405Z,110
2017-07-18T10:26:36.894Z,110
2017-07-18T10:27:02.349Z,110
2017-07-18T10:27:27.829Z,110
2017-07-18T10:27:53.300Z,110
2017-07-18T10:28:18.756Z,110
2017-07-18T10:28:44.205Z,110
2017-07-18T10:29:09.701Z,110
2017-07-18T10:29:35.209Z,110
2017-07-18T10:30:00.665Z,110
2017-07-18T10:30:26.153Z,110
2017-07-18T10:30:51.661Z,110
2017-07-18T10:31:17.133Z,110
2017-07-18T10:31:42.626Z,110
2017-07-18T10:32:08.095Z,110
2017-07-18T10:32:33.586Z,110
2017-07-18T10:32:59.069Z,110
2017-07-18T10:33:24.572Z,105
2017-07-18T10:33:50.048Z,105
2017-07-18T10:34:15.552Z,105
2017-07-18T10:34:41.040Z,105
2017-07-18T10:35:06.505Z,105
2017-07-18T10:35:31.988Z,105
2017-07-18T10:35:57.444Z,105
2017-07-18T10:36:22.933Z,100
2017-07-18T10:36:48.392Z,100
2017-07-18T10:37:13.900Z,95
2017-07-18T10:37:39.369Z,100
2017-07-18T10:38:04.836Z,100
2017-07-18T10:38:30.313Z,100
2017-07-18T10:38:55.779Z,100
2017-07-18T10:39:21.236Z,100
2017-07-18T10:40:39.658Z,100
2017-07-18T10:41:05.135Z,100
2017-07-18T10:41:30.624Z,100
2017-07-18T10:41:56.108Z,100
2017-07-18T10:42:21.587Z,100
2017-07-18T10:42:47.065Z,100
2017-07-18T10:43:12.546Z,100
2017-07-18T10:43:38.010Z,100
2017-07-18T10:44:03.507Z,100
2017-07-18T10:44:28.973Z,100
2017-07-18T10:44:54.440Z,100
2017-07-18T10:45:19.896Z,100
2017-07-18T10:45:45.410Z,100
2017-07-18T10:46:10.868Z,100
2017-07-18T10:46:36.368Z,100
2017-07-18T10:47:01.850Z,100
2017-07-18T10:47:27.301Z,100
2017-07-18T10:47:52.798Z,95
2017-07-18T10:48:18.258Z,95
2017-07-18T10:48:43.730Z,100
2017-07-18T10:49:09.238Z,100
2017-07-18T10:49:34.711Z,100
2017-07-18T10:50:00.194Z,95
2017-07-18T10:50:25.686Z,100
2017-07-18T10:50:51.175Z,100
2017-07-18T10:51:16.671Z,100
2017-07-18T10:51:42.147Z,100
2017-07-18T10:52:07.620Z,100
2017-07-18T10:52:33.091Z,100
2017-07-18T10:52:58.547Z,100
2017-07-18T10:53:24.038Z,100
2017-07-18T10:53:49.504Z,100
2017-07-18T10:54:14.987Z,100
2017-07-18T10:54:40.453Z,100
2017-07-18T10:55:05.935Z,100
2017-07-18T10:55:31.414Z,100
2017-07-18T10:55:56.976Z,100
2017-07-18T10:56:22.452Z,100
2017-07-18T10:56:47.920Z,100
2017-07-18T10:57:13.384Z,100
2017-07-18T10:57:38.881Z,100
2017-07-18T10:58:04.375Z,95
2017-07-18T10:58:29.843Z,95
2017-07-18T10:58:55.300Z,95
2017-07-18T10:59:20.790Z,95
2017-07-18T10:59:46.264Z,95
2017-07-18T11:00:11.748Z,95
2017-07-18T11:00:37.223Z,95
2017-07-18T11:01:02.686Z,90
2017-07-18T11:01:28.155Z,95
2017-07-18T11:01:53.627Z,95
2017-07-18T11:02:19.065Z,95
2017-07-18T11:02:44.540Z,95
2017-07-18T11:03:10.029Z,95
2017-07-18T11:03:35.490Z,95
2017-07-18T11:04:00.975Z,95
2017-07-18T11:04:26.463Z,90
2017-07-18T11:04:51.936Z,90
2017-07-18T11:05:17.408Z,85
2017-07-18T11:05:42.867Z,85
2017-07-18T11:06:08.323Z,90
2017-07-18T11:06:33.795Z,85
2017-07-18T11:06:59.303Z,90
2017-07-18T11:07:24.758Z,95
2017-07-18T11:07:50.243Z,95
2017-07-18T11:08:15.719Z,95
2017-07-18T11:08:41.184Z,95
2017-07-18T11:09:06.654Z,90
2017-07-18T11:09:32.142Z,90
2017-07-18T11:09:57.606Z,90
2017-07-18T11:10:23.078Z,95
2017-07-18T11:10:48.573Z,95
2017-07-18T11:11:14.062Z,100
2017-07-18T11:11:39.525Z,100
2017-07-18T11:12:05.030Z,100
2017-07-18T11:12:30.535Z,100
2017-07-18T11:12:56.017Z,100
2017-07-18T11:13:21.521Z,100
2017-07-18T11:13:46.999Z,105
2017-07-18T11:14:12.494Z,105
2017-07-18T11:14:37.979Z,105
2017-07-18T11:15:03.471Z,95
2017-07-18T11:15:28.940Z,100
2017-07-18T11:15:54.435Z,100
2017-07-18T11:16:19.919Z,100
2017-07-18T11:17:43.890Z,100
2017-07-18T11:18:09.368Z,100
2017-07-18T11:18:34.846Z,100
2017-07-18T11:19:00.341Z,95
2017-07-18T11:19:25.819Z,95
2017-07-18T11:19:51.300Z,95
2017-07-18T11:20:16.783Z,95
2017-07-18T11:20:42.292Z,95
2017-07-18T11:21:07.743Z,95
2017-07-18T11:21:33.235Z,95
2017-07-18T11:21:58.727Z,95
2017-07-18T11:22:24.220Z,95
2017-07-18T11:22:49.702Z,95
2017-07-18T11:23:15.180Z,95
2017-07-18T11:23:40.659Z,95
2017-07-18T11:24:06.141Z,95
2017-07-18T11:24:31.623Z,95
2017-07-18T11:24:57.096Z,95
2017-07-18T11:25:22.587Z,95
2017-07-18T11:25:48.070Z,95
2017-07-18T11:26:13.547Z,95
2017-07-18T11:26:39.028Z,95
2017-07-18T11:27:04.518Z,90
2017-07-18T11:27:30.017Z,90